createdAt,value
2018-03-30T00:01:54.815Z,5.02
2018-03-30T00:04:27.320Z,5.03
2018-03-30T00:07:09.968Z,4.96
2018-03-30T00:09:54.240Z,4.97
2018-03-30T00:12:26.740Z,5.01
2018-03-30T00:14:59.907Z,4.92
2018-03-30T00:17:32.776Z,4.85
2018-03-30T00:20:05.326Z,4.78
2018-03-30T00:22:38.072Z,4.74
2018-03-30T00:25:10.692Z,4.73
2018-03-30T00:27:43.202Z,4.63
2018-03-30T00:30:15.700Z,4.63
2018-03-30T00:32:48.207Z,4.71
2018-03-30T00:35:20.690Z,4.63
2018-03-30T00:37:53.194Z,4.44
2018-03-30T00:40:25.671Z,4.57
2018-03-30T00:42:58.186Z,4.55
2018-03-30T00:45:30.683Z,4.62
2018-03-30T00:48:04.302Z,4.70
2018-03-30T00:50:36.818Z,4.71
2018-03-30T00:53:21.191Z,4.65
2018-03-30T00:55:53.671Z,4.59
2018-03-30T00:58:26.174Z,4.63
2018-03-30T01:00:58.669Z,4.61
2018-03-30T01:03:31.459Z,4.59
2018-03-30T01:06:04.230Z,4.19
2018-03-30T01:08:36.986Z,4.30
2018-03-30T01:11:10.461Z,4.19
2018-03-30T01:13:42.977Z,4.24
2018-03-30T01:16:15.467Z,4.30
2018-03-30T01:18:47.962Z,4.30
2018-03-30T01:21:20.438Z,4.28
2018-03-30T01:23:52.933Z,4.26
2018-03-30T01:26:25.427Z,4.28
2018-03-30T01:28:57.921Z,4.29
2018-03-30T01:31:31.564Z,4.23
2018-03-30T01:34:04.223Z,4.20
2018-03-30T01:36:36.762Z,4.45
2018-03-30T01:39:09.386Z,4.17
2018-03-30T01:41:41.963Z,4.44
2018-03-30T01:44:14.506Z,4.40
2018-03-30T01:46:46.987Z,4.37
2018-03-30T01:49:19.487Z,4.34
2018-03-30T01:51:51.956Z,4.25
2018-03-30T01:54:24.454Z,4.22
2018-03-30T01:56:56.927Z,4.29
2018-03-30T01:59:30.308Z,4.39
2018-03-30T02:02:03.119Z,4.46
2018-03-30T02:04:35.772Z,4.46
2018-03-30T02:07:08.333Z,4.44
2018-03-30T02:09:40.856Z,4.44
2018-03-30T02:12:13.350Z,4.30
2018-03-30T02:14:45.842Z,4.23
2018-03-30T02:17:18.323Z,4.15
2018-03-30T02:19:50.823Z,4.13
2018-03-30T02:22:23.302Z,4.14
2018-03-30T02:24:55.801Z,4.14
2018-03-30T02:27:30.055Z,4.05
2018-03-30T02:30:02.731Z,4.06
2018-03-30T02:32:35.352Z,4.05
2018-03-30T02:35:07.972Z,3.96
2018-03-30T02:37:40.573Z,3.89
2018-03-30T02:40:13.087Z,3.92
2018-03-30T02:42:45.586Z,3.91
2018-03-30T02:45:18.102Z,3.85
2018-03-30T02:47:50.574Z,3.88
2018-03-30T02:50:23.066Z,3.87
2018-03-30T02:52:55.548Z,3.83
2018-03-30T02:55:28.043Z,3.92
2018-03-30T02:58:01.765Z,3.80
2018-03-30T03:00:34.693Z,3.70
2018-03-30T03:03:07.272Z,3.68
2018-03-30T03:05:39.938Z,3.65
2018-03-30T03:08:12.479Z,3.66
2018-03-30T03:10:44.997Z,3.62
2018-03-30T03:13:17.504Z,3.59
2018-03-30T03:15:49.996Z,3.60
2018-03-30T03:18:22.502Z,3.49
2018-03-30T03:20:54.982Z,3.57
2018-03-30T03:23:27.478Z,3.56
2018-03-30T03:26:00.100Z,3.56
2018-03-30T03:28:32.886Z,3.56
2018-03-30T03:31:05.611Z,3.53
2018-03-30T03:33:38.225Z,3.50
2018-03-30T03:36:10.891Z,3.58
2018-03-30T03:38:43.474Z,3.63
2018-03-30T03:41:15.994Z,3.53
2018-03-30T03:43:48.490Z,3.53
2018-03-30T03:46:20.975Z,3.58
2018-03-30T03:48:53.474Z,3.62
2018-03-30T03:51:25.965Z,3.59
2018-03-30T03:53:58.476Z,3.46
2018-03-30T03:56:31.158Z,3.38
2018-03-30T03:59:04.340Z,3.36
2018-03-30T04:01:36.996Z,3.36
2018-03-30T04:04:09.610Z,3.30
2018-03-30T04:06:42.190Z,3.38
2018-03-30T04:09:14.689Z,3.42
2018-03-30T04:11:47.166Z,3.46
2018-03-30T04:14:19.655Z,3.48
2018-03-30T04:16:52.125Z,3.49
2018-03-30T04:19:24.623Z,3.51
2018-03-30T04:21:57.098Z,3.51
2018-03-30T04:24:30.194Z,3.51
2018-03-30T04:27:03.455Z,3.44
2018-03-30T04:29:36.228Z,3.42
2018-03-30T04:32:08.844Z,3.44
2018-03-30T04:34:41.497Z,3.57
2018-03-30T04:37:14.059Z,3.55
2018-03-30T04:39:46.566Z,3.59
2018-03-30T04:42:19.042Z,3.62
2018-03-30T04:44:51.547Z,3.60
2018-03-30T04:47:24.022Z,3.67
2018-03-30T04:49:56.520Z,3.68
2018-03-30T04:52:29.054Z,3.65
2018-03-30T04:55:01.965Z,3.66
2018-03-30T04:57:35.103Z,3.69
2018-03-30T05:00:07.883Z,3.69
2018-03-30T05:02:40.472Z,3.71
2018-03-30T05:05:13.014Z,3.74
2018-03-30T05:07:45.521Z,3.73
2018-03-30T05:10:18.021Z,3.74
2018-03-30T05:12:50.494Z,3.72
2018-03-30T05:15:23.002Z,3.72
2018-03-30T05:17:55.506Z,3.75
2018-03-30T05:20:28.007Z,3.66
2018-03-30T05:23:00.928Z,3.59
2018-03-30T05:25:33.780Z,3.65
2018-03-30T05:28:06.369Z,3.86
2018-03-30T05:30:39.093Z,4.12
2018-03-30T05:33:11.633Z,4.22
2018-03-30T05:35:44.134Z,4.14
2018-03-30T05:38:16.613Z,3.95
2018-03-30T05:40:49.105Z,3.92
2018-03-30T05:43:21.584Z,4.05
2018-03-30T05:45:54.078Z,4.19
2018-03-30T05:48:26.554Z,4.19
2018-03-30T05:50:59.306Z,4.25
2018-03-30T05:53:31.946Z,4.35
2018-03-30T05:56:04.721Z,4.29
2018-03-30T05:58:37.271Z,4.35
2018-03-30T06:01:09.980Z,4.28
2018-03-30T06:03:42.497Z,4.22
2018-03-30T06:06:15.042Z,4.29
2018-03-30T06:08:47.518Z,4.37
2018-03-30T06:11:20.011Z,4.66
2018-03-30T06:13:52.491Z,4.80
2018-03-30T06:16:24.985Z,5.09
2018-03-30T06:18:57.465Z,5.33
2018-03-30T06:21:30.204Z,5.02
2018-03-30T06:24:03.077Z,4.76
2018-03-30T06:26:35.749Z,4.79
2018-03-30T06:29:08.247Z,4.99
2018-03-30T06:31:40.866Z,5.02
2018-03-30T06:34:13.375Z,4.63
2018-03-30T06:36:45.886Z,4.73
2018-03-30T06:39:18.370Z,4.80
2018-03-30T06:41:50.870Z,4.48
2018-03-30T06:44:23.352Z,4.49
2018-03-30T06:46:55.851Z,4.15
2018-03-30T06:49:28.331Z,4.49
2018-03-30T06:52:01.101Z,4.34
2018-03-30T06:54:33.804Z,4.45
2018-03-30T06:57:06.475Z,4.40
2018-03-30T06:59:39.200Z,4.52
2018-03-30T07:02:11.783Z,4.63
2018-03-30T07:04:44.326Z,4.52
2018-03-30T07:07:16.815Z,4.70
2018-03-30T07:09:49.328Z,4.49
2018-03-30T07:12:21.811Z,4.37
2018-03-30T07:14:54.315Z,4.36
2018-03-30T07:17:26.816Z,4.28
2018-03-30T07:19:59.378Z,4.20
2018-03-30T07:22:32.138Z,4.16
2018-03-30T07:25:05.248Z,4.36
2018-03-30T07:27:38.023Z,4.63
2018-03-30T07:30:10.633Z,4.89
2018-03-30T07:32:43.110Z,4.63
2018-03-30T07:35:15.604Z,4.45
2018-03-30T07:37:48.088Z,4.84
2018-03-30T07:40:20.589Z,4.91
2018-03-30T07:42:53.063Z,5.19
2018-03-30T07:45:25.562Z,5.17
2018-03-30T07:47:58.038Z,5.01
2018-03-30T07:50:31.686Z,5.18
2018-03-30T07:53:04.454Z,5.17
2018-03-30T07:55:37.150Z,4.59
2018-03-30T07:58:09.769Z,4.20
2018-03-30T08:00:42.405Z,4.82
2018-03-30T08:03:14.903Z,4.83
2018-03-30T08:05:47.434Z,5.23
2018-03-30T08:08:19.918Z,5.22
2018-03-30T08:10:52.438Z,5.27
2018-03-30T08:13:24.958Z,5.12
2018-03-30T08:15:57.464Z,5.25
2018-03-30T08:18:30.272Z,5.30
2018-03-30T08:21:04.417Z,5.04
2018-03-30T08:23:37.093Z,5.21
2018-03-30T08:26:09.716Z,5.30
2018-03-30T08:28:42.430Z,5.38
2018-03-30T08:31:14.954Z,5.54
2018-03-30T08:33:47.459Z,5.39
2018-03-30T08:36:19.961Z,5.75
2018-03-30T08:38:52.438Z,5.60
2018-03-30T08:41:24.932Z,5.83
2018-03-30T08:43:57.406Z,5.87
2018-03-30T08:46:30.035Z,6.14
2018-03-30T08:49:02.616Z,6.63
2018-03-30T08:51:35.267Z,6.46
2018-03-30T08:54:07.811Z,6.74
2018-03-30T08:56:40.768Z,6.91
2018-03-30T08:59:13.299Z,6.57
2018-03-30T09:01:45.815Z,7.17
2018-03-30T09:04:18.351Z,7.55
2018-03-30T09:06:50.806Z,7.58
2018-03-30T09:09:23.291Z,7.60
2018-03-30T09:11:55.781Z,7.41
2018-03-30T09:14:28.250Z,7.81
2018-03-30T09:17:01.453Z,8.17
2018-03-30T09:19:34.209Z,7.97
2018-03-30T09:22:06.822Z,8.02
2018-03-30T09:24:39.361Z,7.99
2018-03-30T09:27:11.932Z,8.35
2018-03-30T09:29:50.110Z,7.74
2018-03-30T09:32:22.614Z,8.37
2018-03-30T09:34:55.096Z,8.41
2018-03-30T09:37:27.590Z,7.98
2018-03-30T09:40:00.181Z,8.50
2018-03-30T09:42:33.214Z,8.45
2018-03-30T09:45:05.855Z,8.33
2018-03-30T09:47:38.666Z,7.85
2018-03-30T09:50:11.235Z,8.32
2018-03-30T09:52:43.776Z,8.59
2018-03-30T09:55:16.255Z,8.99
2018-03-30T09:57:48.750Z,8.98
2018-03-30T10:00:21.220Z,8.83
2018-03-30T10:02:53.717Z,9.13
2018-03-30T10:05:26.190Z,9.29
2018-03-30T10:07:58.694Z,8.74
2018-03-30T10:10:32.408Z,9.10
2018-03-30T10:13:05.056Z,9.07
2018-03-30T10:15:37.800Z,8.82
2018-03-30T10:18:10.501Z,9.16
2018-03-30T10:20:43.077Z,9.37
2018-03-30T10:23:15.598Z,9.15
2018-03-30T10:25:48.083Z,9.66
2018-03-30T10:28:20.577Z,9.78
2018-03-30T10:30:53.054Z,9.35
2018-03-30T10:33:25.541Z,9.18
2018-03-30T10:35:58.036Z,9.53
2018-03-30T10:38:30.724Z,9.84
2018-03-30T10:41:03.363Z,10.32
2018-03-30T10:43:35.911Z,10.58
2018-03-30T10:46:08.544Z,10.13
2018-03-30T10:48:41.100Z,10.58
2018-03-30T10:51:13.614Z,11.01
2018-03-30T10:53:46.097Z,10.78
2018-03-30T10:56:18.590Z,10.88
2018-03-30T10:58:51.607Z,10.95
2018-03-30T11:01:24.116Z,10.86
2018-03-30T11:03:56.590Z,10.98
2018-03-30T11:06:29.153Z,10.40
2018-03-30T11:09:01.736Z,9.47
2018-03-30T11:11:34.294Z,9.88
2018-03-30T11:14:06.825Z,10.08
2018-03-30T11:16:39.389Z,10.22
2018-03-30T11:19:11.897Z,11.19
2018-03-30T11:21:44.402Z,11.32
2018-03-30T11:24:16.931Z,11.10
2018-03-30T11:26:49.426Z,11.00
2018-03-30T11:29:21.902Z,11.23
2018-03-30T11:31:54.423Z,11.16
2018-03-30T11:34:26.924Z,11.22
2018-03-30T11:36:59.523Z,11.29
2018-03-30T11:39:32.114Z,11.45
2018-03-30T11:42:04.630Z,12.11
2018-03-30T11:44:37.229Z,12.35
2018-03-30T11:47:09.806Z,12.27
2018-03-30T11:49:42.314Z,12.11
2018-03-30T11:52:14.867Z,12.28
2018-03-30T11:54:47.354Z,12.32
2018-03-30T11:57:19.854Z,12.01
2018-03-30T11:59:52.344Z,11.78
2018-03-30T12:02:24.877Z,11.60
2018-03-30T12:04:57.375Z,11.52
2018-03-30T12:07:30.391Z,11.47
2018-03-30T12:10:02.981Z,11.82
2018-03-30T12:12:35.529Z,12.06
2018-03-30T12:15:09.213Z,12.12
2018-03-30T12:17:41.714Z,12.44
2018-03-30T12:20:14.205Z,12.71
2018-03-30T12:22:46.698Z,13.17
2018-03-30T12:25:19.174Z,12.65
2018-03-30T12:27:51.670Z,12.94
2018-03-30T12:30:24.150Z,13.60
2018-03-30T12:32:56.707Z,13.01
2018-03-30T12:35:29.200Z,13.10
2018-03-30T12:38:01.717Z,12.97
2018-03-30T12:40:34.294Z,13.41
2018-03-30T12:43:06.806Z,13.82
2018-03-30T12:45:39.310Z,13.77
2018-03-30T12:48:11.811Z,13.62
2018-03-30T12:50:44.302Z,14.96
2018-03-30T12:53:16.803Z,14.73
2018-03-30T12:55:49.284Z,14.97
2018-03-30T12:58:21.791Z,14.48
2018-03-30T13:00:54.275Z,14.72
2018-03-30T13:03:26.776Z,15.57
2018-03-30T13:05:59.270Z,13.41
2018-03-30T13:08:31.802Z,13.79
2018-03-30T13:11:04.345Z,13.56
2018-03-30T13:13:36.911Z,13.29
2018-03-30T13:16:09.414Z,13.45
2018-03-30T13:18:41.910Z,11.92
2018-03-30T13:21:14.414Z,12.57
2018-03-30T13:23:46.909Z,13.34
2018-03-30T13:26:19.389Z,12.78
2018-03-30T13:28:51.885Z,13.25
2018-03-30T13:31:24.365Z,13.28
2018-03-30T13:33:56.862Z,13.46
2018-03-30T13:36:29.406Z,13.53
2018-03-30T13:39:01.939Z,14.07
2018-03-30T13:41:34.436Z,13.93
2018-03-30T13:44:06.955Z,13.89
2018-03-30T13:46:39.438Z,13.27
2018-03-30T13:49:11.938Z,13.83
2018-03-30T13:52:01.072Z,14.10
2018-03-30T13:54:34.462Z,15.08
2018-03-30T13:57:10.206Z,14.26
2018-03-30T13:59:43.621Z,12.53
2018-03-30T14:05:32.433Z,13.12
2018-03-30T14:08:06.595Z,13.47
2018-03-30T14:10:44.957Z,13.41
2018-03-30T14:13:17.553Z,13.49
2018-03-30T14:15:51.047Z,14.00
2018-03-30T14:18:26.411Z,13.80
2018-03-30T14:21:02.643Z,13.54
2018-03-30T14:23:36.152Z,13.58
2018-03-30T14:26:13.403Z,13.92
2018-03-30T14:31:57.753Z,13.26
2018-03-30T14:34:35.674Z,13.60
2018-03-30T14:37:10.709Z,13.44
2018-03-30T14:42:58.961Z,13.32
2018-03-30T14:48:37.664Z,13.75
2018-03-30T14:51:16.657Z,13.18
2018-03-30T14:53:51.099Z,13.63
2018-03-30T14:56:30.461Z,13.02
2018-03-30T15:02:22.200Z,13.56
2018-03-30T15:04:59.457Z,13.18
2018-03-30T15:07:34.518Z,13.28
2018-03-30T15:10:17.526Z,13.24
2018-03-30T15:12:53.474Z,12.90
2018-03-30T15:15:40.800Z,13.32
2018-03-30T15:18:14.078Z,13.50
2018-03-30T15:20:50.176Z,13.33
2018-03-30T15:23:32.030Z,13.18
2018-03-30T15:26:08.405Z,13.17
2018-03-30T15:28:41.611Z,12.91
2018-03-30T15:31:32.669Z,13.15
2018-03-30T15:34:07.738Z,13.12
2018-03-30T15:39:41.400Z,13.03
2018-03-30T15:42:13.968Z,12.90
2018-03-30T15:44:47.284Z,12.86
2018-03-30T15:47:20.707Z,13.14
2018-03-30T15:49:54.206Z,13.21
2018-03-30T15:52:26.805Z,12.92
2018-03-30T15:54:59.360Z,13.01
2018-03-30T15:57:31.933Z,13.03
2018-03-30T16:00:07.319Z,13.02
2018-03-30T16:02:39.897Z,12.93
2018-03-30T16:05:12.447Z,13.11
2018-03-30T16:07:45.032Z,13.09
2018-03-30T16:10:20.309Z,13.05
2018-03-30T16:13:02.787Z,13.11
2018-03-30T16:15:35.377Z,13.09
2018-03-30T16:18:07.931Z,12.94
2018-03-30T16:20:42.428Z,12.75
2018-03-30T16:23:14.450Z,12.79
2018-03-30T16:25:46.449Z,12.87
2018-03-30T16:28:18.482Z,12.84
2018-03-30T16:30:50.500Z,12.49
2018-03-30T16:33:22.524Z,12.42
2018-03-30T16:35:54.842Z,12.26
2018-03-30T16:38:26.932Z,12.35
2018-03-30T16:40:58.925Z,12.00
2018-03-30T16:43:30.953Z,12.30
2018-03-30T16:46:02.963Z,12.03
2018-03-30T16:48:35.004Z,12.08
2018-03-30T16:51:07.020Z,12.32
2018-03-30T16:53:39.040Z,12.16
2018-03-30T16:56:11.034Z,12.30
2018-03-30T16:58:43.059Z,12.40
2018-03-30T17:01:15.087Z,12.30
2018-03-30T17:03:48.662Z,12.31
2018-03-30T17:06:20.691Z,11.69
2018-03-30T17:08:52.717Z,12.07
2018-03-30T17:11:24.727Z,12.23
2018-03-30T17:13:56.772Z,11.74
2018-03-30T17:16:28.777Z,11.54
2018-03-30T17:19:00.805Z,11.79
2018-03-30T17:21:32.819Z,11.69
2018-03-30T17:24:04.848Z,11.60
2018-03-30T17:26:36.856Z,11.82
2018-03-30T17:29:08.902Z,11.78
2018-03-30T17:31:40.945Z,11.60
2018-03-30T17:34:13.029Z,11.44
2018-03-30T17:36:45.115Z,11.77
2018-03-30T17:39:17.205Z,11.23
2018-03-30T17:41:49.351Z,11.49
2018-03-30T17:44:21.737Z,11.59
2018-03-30T17:46:53.758Z,11.43
2018-03-30T17:49:25.779Z,11.49
2018-03-30T17:51:57.789Z,11.49
2018-03-30T17:54:29.826Z,11.36
2018-03-30T17:57:01.855Z,11.19
2018-03-30T17:59:33.912Z,11.30
2018-03-30T18:02:06.951Z,11.35
2018-03-30T18:04:39.114Z,11.28
2018-03-30T18:07:11.155Z,11.38
2018-03-30T18:09:43.192Z,11.21
2018-03-30T18:12:15.220Z,11.38
2018-03-30T18:14:47.277Z,11.33
2018-03-30T18:17:19.286Z,11.13
2018-03-30T18:19:51.315Z,10.97
2018-03-30T18:22:23.381Z,11.06
2018-03-30T18:24:55.419Z,11.05
2018-03-30T18:27:27.431Z,11.02
2018-03-30T18:29:59.477Z,10.90
2018-03-30T18:32:31.489Z,10.95
2018-03-30T18:35:03.524Z,10.82
2018-03-30T18:37:35.535Z,10.89
2018-03-30T18:40:07.594Z,10.91
2018-03-30T18:42:39.619Z,11.14
2018-03-30T18:45:11.673Z,10.93
2018-03-30T18:47:43.696Z,10.85
2018-03-30T18:50:15.768Z,11.00
2018-03-30T18:52:47.745Z,11.03
2018-03-30T18:55:19.770Z,10.81
2018-03-30T18:57:51.794Z,10.90
2018-03-30T19:00:23.863Z,10.95
2018-03-30T19:02:55.884Z,10.71
2018-03-30T19:05:27.934Z,10.66
2018-03-30T19:07:59.948Z,10.84
2018-03-30T19:10:32.042Z,10.51
2018-03-30T19:13:04.053Z,10.77
2018-03-30T19:15:36.083Z,10.65
2018-03-30T19:18:08.100Z,10.58
2018-03-30T19:20:40.145Z,10.66
2018-03-30T19:23:12.189Z,10.44
2018-03-30T19:25:44.240Z,10.41
2018-03-30T19:28:16.225Z,10.45
2018-03-30T19:30:48.276Z,10.37
2018-03-30T19:33:20.299Z,9.98
2018-03-30T19:35:52.355Z,10.39
2018-03-30T19:38:24.729Z,10.17
2018-03-30T19:40:56.843Z,10.20
2018-03-30T19:43:29.178Z,9.91
2018-03-30T19:46:01.252Z,10.10
2018-03-30T19:48:33.234Z,10.23
2018-03-30T19:51:05.250Z,10.01
2018-03-30T19:53:37.300Z,9.91
2018-03-30T19:56:09.332Z,10.03
2018-03-30T19:58:41.342Z,10.03
2018-03-30T20:01:13.359Z,10.10
2018-03-30T20:03:45.383Z,10.11
2018-03-30T20:06:17.416Z,10.10
2018-03-30T20:08:49.416Z,10.08
2018-03-30T20:11:21.444Z,9.83
2018-03-30T20:16:31.711Z,9.84
2018-03-30T20:19:03.748Z,9.66
2018-03-30T20:21:35.765Z,9.51
2018-03-30T20:24:07.764Z,9.75
2018-03-30T20:26:39.773Z,9.79
2018-03-30T20:29:11.790Z,9.43
2018-03-30T20:31:43.807Z,9.41
2018-03-30T20:34:15.837Z,9.30
2018-03-30T20:36:47.850Z,9.30
2018-03-30T20:39:19.876Z,9.21
2018-03-30T20:41:51.872Z,9.42
2018-03-30T20:44:23.882Z,9.02
2018-03-30T20:46:55.900Z,9.22
2018-03-30T20:49:27.953Z,9.16
2018-03-30T20:51:59.965Z,9.08
2018-03-30T20:54:31.991Z,9.09
2018-03-30T20:57:03.996Z,9.27
2018-03-30T20:59:36.030Z,9.19
2018-03-30T21:02:08.040Z,9.01
2018-03-30T21:04:40.063Z,8.93
2018-03-30T21:07:12.089Z,8.94
2018-03-30T21:09:44.134Z,9.07
2018-03-30T21:12:16.141Z,9.12
2018-03-30T21:14:48.184Z,9.09
2018-03-30T21:17:20.193Z,9.15
2018-03-30T21:19:52.241Z,8.82
2018-03-30T21:22:24.247Z,8.88
2018-03-30T21:24:56.261Z,8.73
2018-03-30T21:27:28.316Z,8.83
2018-03-30T21:30:00.358Z,8.65
2018-03-30T21:32:32.366Z,8.62
2018-03-30T21:35:04.423Z,8.35
2018-03-30T21:37:36.448Z,8.55
2018-03-30T21:40:08.484Z,8.50
2018-03-30T21:42:40.487Z,8.59
2018-03-30T21:45:12.523Z,8.61
2018-03-30T21:47:44.572Z,7.79
2018-03-30T21:50:16.606Z,8.10
2018-03-30T21:52:48.615Z,8.03
2018-03-30T21:55:20.632Z,8.43
2018-03-30T21:57:52.641Z,8.56
2018-03-30T22:00:24.678Z,8.22
2018-03-30T22:02:56.704Z,8.33
2018-03-30T22:05:28.736Z,8.21
2018-03-30T22:08:00.770Z,8.34
2018-03-30T22:10:32.828Z,8.39
2018-03-30T22:13:04.826Z,8.35
2018-03-30T22:15:36.850Z,8.20
2018-03-30T22:18:08.874Z,8.34
2018-03-30T22:20:40.938Z,8.17
2018-03-30T22:23:12.934Z,7.61
2018-03-30T22:25:45.014Z,7.95
2018-03-30T22:28:17.026Z,8.02
2018-03-30T22:30:49.060Z,7.97
2018-03-30T22:33:21.134Z,8.04
2018-03-30T22:35:53.195Z,7.68
2018-03-30T22:38:25.234Z,8.00
2018-03-30T22:40:57.314Z,8.25
2018-03-30T22:43:29.399Z,8.36
2018-03-30T22:46:01.479Z,8.16
2018-03-30T22:48:33.499Z,8.39
2018-03-30T22:53:43.790Z,7.83
2018-03-30T22:56:15.891Z,8.04
2018-03-30T22:58:47.925Z,8.10
2018-03-30T23:01:19.961Z,7.92
2018-03-30T23:03:51.951Z,7.75
2018-03-30T23:06:24.035Z,7.71
2018-03-30T23:08:56.062Z,7.70
2018-03-30T23:11:28.110Z,7.72
2018-03-30T23:14:00.119Z,7.72
2018-03-30T23:16:32.157Z,7.79
2018-03-30T23:19:04.169Z,7.89
2018-03-30T23:21:36.216Z,7.89
2018-03-30T23:24:08.242Z,7.89
2018-03-30T23:26:40.311Z,7.80
2018-03-30T23:29:12.333Z,7.40
2018-03-30T23:31:44.394Z,7.55
2018-03-30T23:34:16.402Z,7.29
2018-03-30T23:36:48.444Z,7.35
2018-03-30T23:39:20.431Z,7.29
2018-03-30T23:41:52.455Z,7.00
2018-03-30T23:44:24.455Z,7.14
2018-03-30T23:46:56.490Z,7.45
2018-03-30T23:49:28.486Z,7.24
2018-03-30T23:52:00.522Z,7.53
2018-03-30T23:54:32.543Z,7.26
2018-03-30T23:57:04.579Z,7.30
2018-03-30T23:59:36.605Z,7.31
